Time;durP1;ratioP1;P1;durP2;ratioP2;P2;SDS_P1;SDS_P2;PMS_P1;PMS_P2;Temp;Humidity;BMP_temperature;BMP_pressure;BME280_temperature;BME280_humidity;BME280_pressure;Samples;Min_cycle;Max_cycle;Signal;HPM_P1;HPM_P2
2022/03/20 00:00:40;;;;;;;12.35;8.38;;;5.50;99.90;;;;;;4996702;28;20038;-79
2022/03/20 00:03:07;;;;;;;13.27;7.90;;;5.50;99.90;;;;;;4978642;28;20052;-80
2022/03/20 00:05:40;;;;;;;12.32;8.00;;;5.40;99.90;;;;;;4996123;28;20052;-80
2022/03/20 00:08:11;;;;;;;14.20;8.00;;;5.40;99.90;;;;;;4996835;28;20038;-80
2022/03/20 00:10:48;;;;;;;11.95;8.35;;;5.40;99.90;;;;;;4996004;28;20050;-80
2022/03/20 00:13:16;;;;;;;12.93;8.40;;;5.40;99.90;;;;;;4995137;28;20372;-80
2022/03/20 00:15:44;;;;;;;13.85;8.95;;;5.30;99.90;;;;;;4999217;28;20103;-82
2022/03/20 00:18:11;;;;;;;11.80;7.97;;;5.20;99.90;;;;;;4997345;28;20041;-81
2022/03/20 00:20:39;;;;;;;10.68;8.65;;;5.20;99.90;;;;;;4997198;28;20033;-81
2022/03/20 00:23:07;;;;;;;10.93;7.80;;;5.20;99.90;;;;;;4980921;28;20057;-81
2022/03/20 00:25:38;;;;;;;14.45;9.93;;;5.10;99.90;;;;;;4981271;28;20050;-82
2022/03/20 00:28:05;;;;;;;13.55;8.77;;;5.10;99.90;;;;;;4997691;28;20053;-79
2022/03/20 00:30:31;;;;;;;16.02;8.07;;;5.00;99.90;;;;;;5013665;28;20045;-79
2022/03/20 00:32:57;;;;;;;13.88;8.88;;;5.00;99.90;;;;;;4997129;28;20321;-80
2022/03/20 00:35:22;;;;;;;12.13;7.95;;;5.00;99.90;;;;;;5000138;28;20053;-79
2022/03/20 00:37:48;;;;;;;11.82;8.32;;;4.90;99.90;;;;;;5001483;28;20499;-80
2022/03/20 00:40:13;;;;;;;13.60;9.35;;;4.90;99.90;;;;;;5000864;28;20112;-80
2022/03/20 00:42:39;;;;;;;11.32;7.82;;;4.80;99.90;;;;;;5000668;28;20045;-79
2022/03/20 00:45:05;;;;;;;13.05;8.60;;;4.80;99.90;;;;;;4980555;28;20077;-81
2022/03/20 00:47:31;;;;;;;14.95;8.73;;;4.80;99.90;;;;;;4998510;28;20050;-81
2022/03/20 00:49:57;;;;;;;11.80;8.77;;;4.70;99.90;;;;;;4981512;28;20093;-80
2022/03/20 00:52:23;;;;;;;13.98;8.73;;;4.70;99.90;;;;;;4965358;28;20046;-79
2022/03/20 00:54:48;;;;;;;18.30;8.80;;;4.70;99.90;;;;;;4995935;28;20506;-79
2022/03/20 00:57:14;;;;;;;10.90;8.35;;;4.70;99.90;;;;;;5017885;28;20042;-81
2022/03/20 00:59:40;;;;;;;12.45;8.85;;;4.60;99.90;;;;;;5000479;28;20055;-78
2022/03/20 01:02:05;;;;;;;16.35;8.40;;;4.60;99.90;;;;;;5018039;28;20046;-79
2022/03/20 01:04:31;;;;;;;14.43;9.68;;;4.60;99.90;;;;;;5017912;28;20348;-79
2022/03/20 01:07:01;;;;;;;14.52;9.80;;;4.60;99.90;;;;;;4998682;28;20077;-81
2022/03/20 01:09:30;;;;;;;10.98;7.97;;;4.60;99.90;;;;;;4996766;28;20153;-81
2022/03/20 01:11:56;;;;;;;15.65;8.88;;;4.60;99.90;;;;;;4998193;28;20062;-81
2022/03/20 01:14:23;;;;;;;15.35;8.80;;;4.60;99.90;;;;;;4997783;28;20045;-78
2022/03/20 01:16:49;;;;;;;13.63;9.18;;;4.60;99.90;;;;;;4998188;28;20368;-80
2022/03/20 01:19:15;;;;;;;13.93;8.60;;;4.60;99.90;;;;;;4986580;28;20046;-80
2022/03/20 01:21:41;;;;;;;14.55;9.27;;;4.50;99.90;;;;;;5000050;28;20052;-79
2022/03/20 01:24:08;;;;;;;12.55;9.20;;;4.50;99.90;;;;;;4977232;28;20030;-79
2022/03/20 01:26:34;;;;;;;12.43;9.50;;;4.50;99.90;;;;;;4998167;28;20038;-81
2022/03/20 01:29:00;;;;;;;15.20;9.10;;;4.50;99.90;;;;;;4964517;28;20057;-79
2022/03/20 01:31:28;;;;;;;15.93;9.52;;;4.40;99.90;;;;;;4980683;28;20348;-80
2022/03/20 01:33:54;;;;;;;15.07;9.23;;;4.50;99.90;;;;;;4997983;28;20089;-80
2022/03/20 01:36:21;;;;;;;13.18;9.75;;;4.50;99.90;;;;;;4998751;28;20053;-80
2022/03/20 01:38:47;;;;;;;13.55;8.55;;;4.40;99.90;;;;;;4984183;28;20042;-79
2022/03/20 01:41:13;;;;;;;12.40;8.50;;;4.40;99.90;;;;;;4999724;28;20045;-81
2022/03/20 01:43:38;;;;;;;16.90;9.57;;;4.40;99.90;;;;;;5017040;28;20048;-80
2022/03/20 01:46:04;;;;;;;17.10;9.60;;;4.40;99.90;;;;;;4998927;28;20049;-81
2022/03/20 01:48:30;;;;;;;12.25;8.85;;;4.30;99.90;;;;;;5000059;28;20042;-81
2022/03/20 01:50:55;;;;;;;14.93;9.20;;;4.40;99.90;;;;;;4999418;28;20057;-78
2022/03/20 01:53:21;;;;;;;13.38;9.00;;;4.30;99.90;;;;;;4979918;28;20066;-79
2022/03/20 01:55:47;;;;;;;16.35;9.60;;;4.30;99.90;;;;;;4997327;28;20404;-78
2022/03/20 01:58:16;;;;;;;14.75;9.27;;;4.30;99.90;;;;;;4996998;28;20114;-78
2022/03/20 02:00:42;;;;;;;14.20;9.52;;;4.30;99.90;;;;;;4996621;28;20453;-80
2022/03/20 02:03:07;;;;;;;17.00;9.50;;;4.30;99.90;;;;;;4996408;28;20153;-79
2022/03/20 02:05:35;;;;;;;14.20;9.43;;;4.30;99.90;;;;;;4996907;28;20054;-79
2022/03/20 02:08:01;;;;;;;12.52;8.95;;;4.30;99.90;;;;;;4996739;28;20116;-79
2022/03/20 02:10:35;;;;;;;14.93;9.38;;;4.30;99.90;;;;;;4997158;28;20053;-79
2022/03/20 02:13:01;;;;;;;15.68;9.55;;;4.20;99.90;;;;;;4996911;28;20073;-79
2022/03/20 02:15:27;;;;;;;16.13;9.07;;;4.10;99.90;;;;;;4997138;28;20049;-79
2022/03/20 02:17:54;;;;;;;14.50;9.52;;;4.20;99.90;;;;;;4996304;28;20057;-77
2022/03/20 02:20:22;;;;;;;16.02;8.93;;;4.10;99.90;;;;;;4996016;28;20440;-80
2022/03/20 02:22:47;;;;;;;15.05;9.70;;;4.10;99.90;;;;;;4996364;28;20053;-79
2022/03/20 02:25:15;;;;;;;16.65;9.88;;;4.10;99.90;;;;;;4996745;28;20349;-78
2022/03/20 02:27:44;;;;;;;17.02;9.57;;;4.10;99.90;;;;;;4996707;28;20408;-79
2022/03/20 02:30:13;;;;;;;14.88;9.63;;;4.10;99.90;;;;;;4996160;28;20125;-79
2022/03/20 02:32:41;;;;;;;17.52;9.75;;;4.10;99.90;;;;;;4979871;28;20038;-80
2022/03/20 02:35:11;;;;;;;17.23;10.40;;;4.10;99.90;;;;;;4996564;28;20042;-78
2022/03/20 02:37:39;;;;;;;17.98;10.75;;;4.00;99.90;;;;;;4995541;28;20480;-79
2022/03/20 02:40:05;;;;;;;14.98;10.55;;;3.90;99.90;;;;;;4996238;28;20050;-78
2022/03/20 02:42:31;;;;;;;17.27;10.55;;;4.00;99.90;;;;;;4996428;28;20092;-78
2022/03/20 02:45:04;;;;;;;22.17;10.75;;;3.90;99.90;;;;;;4996750;28;20042;-79
2022/03/20 02:47:35;;;;;;;16.60;10.10;;;3.90;99.90;;;;;;4995897;28;20046;-79
2022/03/20 02:50:09;;;;;;;18.45;10.45;;;3.90;99.90;;;;;;4996389;28;20395;-77
2022/03/20 02:52:58;;;;;;;16.77;10.93;;;3.80;99.90;;;;;;4995693;28;20074;-78
2022/03/20 02:55:23;;;;;;;15.85;9.70;;;3.80;99.90;;;;;;4996293;28;20380;-81
2022/03/20 02:57:49;;;;;;;17.35;9.93;;;3.80;99.90;;;;;;4995570;28;20042;-81
2022/03/20 03:00:21;;;;;;;20.02;10.98;;;3.80;99.90;;;;;;4998283;28;20065;-78
2022/03/20 03:02:48;;;;;;;16.85;10.50;;;3.70;99.90;;;;;;5015483;28;20114;-78
2022/03/20 03:05:15;;;;;;;17.08;10.57;;;3.70;99.90;;;;;;4969535;28;20176;-79
2022/03/20 03:13:13;;;;;;;20.38;11.32;;;3.70;99.90;;;;;;5016313;28;20050;-79
2022/03/20 03:15:39;;;;;;;20.35;11.32;;;3.70;99.90;;;;;;5015677;28;20478;-80
2022/03/20 03:18:04;;;;;;;18.75;11.57;;;3.70;99.90;;;;;;4998341;28;20042;-78
2022/03/20 03:20:31;;;;;;;17.27;10.70;;;3.60;99.90;;;;;;5006153;28;20038;-79
2022/03/20 03:22:57;;;;;;;20.77;11.35;;;3.60;99.90;;;;;;4995778;28;20089;-79
2022/03/20 03:25:23;;;;;;;18.80;12.32;;;3.70;99.90;;;;;;4978798;28;20073;-78
2022/03/20 03:27:49;;;;;;;19.95;12.10;;;3.60;99.90;;;;;;4995293;28;20559;-77
2022/03/20 03:30:15;;;;;;;23.40;12.98;;;3.60;99.90;;;;;;4995656;28;20092;-78
2022/03/20 03:32:41;;;;;;;18.77;12.13;;;3.50;99.90;;;;;;4995794;28;20144;-79
2022/03/20 03:37:57;;;;;;;23.95;12.93;;;3.50;99.90;;;;;;5015280;28;20053;-78
2022/03/20 03:40:22;;;;;;;20.95;13.05;;;3.50;99.90;;;;;;4997697;28;20048;-80
2022/03/20 03:42:50;;;;;;;23.35;13.52;;;3.50;99.90;;;;;;5015323;28;20042;-79
2022/03/20 03:45:15;;;;;;;20.08;12.50;;;3.50;99.90;;;;;;4998302;28;20108;-79
2022/03/20 03:47:41;;;;;;;23.33;13.65;;;3.50;99.90;;;;;;4998482;28;20034;-82
2022/03/20 03:50:09;;;;;;;21.08;12.52;;;3.40;99.90;;;;;;4997344;28;20053;-80
2022/03/20 03:52:35;;;;;;;21.15;13.73;;;3.40;99.90;;;;;;4995406;28;20042;-79
2022/03/20 03:55:02;;;;;;;21.92;14.05;;;3.40;99.90;;;;;;4977737;28;20053;-79
2022/03/20 03:57:28;;;;;;;19.85;13.32;;;3.40;99.90;;;;;;4977711;28;20080;-80
2022/03/20 03:59:53;;;;;;;19.33;13.32;;;3.40;99.90;;;;;;4989944;28;20447;-78
2022/03/20 04:02:19;;;;;;;25.58;13.52;;;3.40;99.90;;;;;;4994509;28;20046;-79
2022/03/20 04:04:46;;;;;;;23.00;15.30;;;3.40;99.90;;;;;;4980862;28;20060;-80
2022/03/20 04:07:16;;;;;;;22.33;13.95;;;3.40;99.90;;;;;;4978755;28;20042;-78
2022/03/20 04:09:41;;;;;;;21.50;15.00;;;3.30;99.90;;;;;;4996979;28;20452;-78
2022/03/20 04:12:07;;;;;;;22.55;15.93;;;3.30;99.90;;;;;;4999460;28;20046;-78
2022/03/20 04:14:33;;;;;;;22.05;14.68;;;3.30;99.90;;;;;;4999432;28;20042;-78
2022/03/20 04:16:59;;;;;;;26.92;16.85;;;3.40;99.90;;;;;;4999132;28;20531;-78
2022/03/20 04:19:25;;;;;;;22.10;15.07;;;3.30;99.90;;;;;;4989432;28;20057;-80
2022/03/20 04:21:51;;;;;;;23.70;15.85;;;3.30;99.90;;;;;;5001744;28;20433;-80
2022/03/20 04:24:16;;;;;;;23.02;14.52;;;3.30;99.90;;;;;;4999903;28;20057;-79
2022/03/20 04:26:43;;;;;;;21.75;15.57;;;3.30;99.90;;;;;;4999618;28;20053;-79
2022/03/20 04:29:09;;;;;;;24.80;15.38;;;3.30;99.90;;;;;;4999174;28;20125;-77
2022/03/20 04:31:35;;;;;;;26.88;15.55;;;3.30;99.90;;;;;;4993895;28;20124;-80
2022/03/20 04:34:00;;;;;;;23.73;16.00;;;3.30;99.90;;;;;;4966024;28;20076;-80
2022/03/20 04:36:30;;;;;;;23.33;15.23;;;3.20;99.90;;;;;;4948825;28;20054;-81
2022/03/20 04:38:59;;;;;;;22.77;16.05;;;3.20;99.90;;;;;;4997615;28;20437;-81
2022/03/20 04:41:25;;;;;;;22.48;17.27;;;3.20;99.90;;;;;;4982017;28;20038;-79
2022/03/20 04:43:51;;;;;;;25.33;15.82;;;3.20;99.90;;;;;;4981679;28;20400;-79
2022/03/20 04:46:18;;;;;;;27.15;16.73;;;3.20;99.90;;;;;;4981356;28;20073;-80
2022/03/20 04:59:40;;;;;;;26.67;16.77;;;3.10;99.90;;;;;;4998302;28;20050;-79
2022/03/20 05:02:06;;;;;;;28.25;18.85;;;3.10;99.90;;;;;;4998545;28;20436;-79
2022/03/20 05:04:31;;;;;;;25.05;16.98;;;3.00;99.90;;;;;;4998448;28;20041;-80
2022/03/20 05:06:57;;;;;;;26.63;16.30;;;3.00;99.90;;;;;;4997757;28;20034;-79
2022/03/20 05:14:56;;;;;;;27.65;17.25;;;3.10;99.90;;;;;;4997591;28;20322;-80
2022/03/20 05:17:22;;;;;;;28.92;17.38;;;3.10;99.90;;;;;;4998254;28;20053;-81
2022/03/20 05:19:48;;;;;;;27.67;17.00;;;3.00;99.90;;;;;;4997782;28;20042;-80
2022/03/20 05:22:14;;;;;;;27.05;17.98;;;3.00;99.90;;;;;;4997491;28;20050;-80
2022/03/20 05:24:40;;;;;;;24.98;17.17;;;3.10;99.90;;;;;;4997135;28;20380;-79
2022/03/20 05:27:07;;;;;;;29.75;17.35;;;3.00;99.90;;;;;;4998351;28;20030;-79
2022/03/20 05:29:33;;;;;;;28.08;16.58;;;3.00;99.90;;;;;;4997560;28;20046;-79
2022/03/20 05:32:02;;;;;;;24.17;17.90;;;3.00;99.90;;;;;;4998086;28;20034;-77
2022/03/20 05:34:28;;;;;;;24.58;18.45;;;3.00;99.90;;;;;;4997999;28;20042;-79
2022/03/20 05:36:56;;;;;;;27.60;17.92;;;3.00;99.90;;;;;;4997063;28;20057;-78
2022/03/20 05:39:22;;;;;;;28.00;17.92;;;3.00;99.90;;;;;;4997567;28;20042;-78
2022/03/20 05:41:49;;;;;;;26.58;18.42;;;3.00;99.90;;;;;;4997756;28;20073;-78
2022/03/20 05:44:16;;;;;;;25.58;18.15;;;3.00;99.90;;;;;;4997037;28;20499;-80
2022/03/20 05:46:43;;;;;;;25.58;17.42;;;3.00;99.90;;;;;;4998131;28;20045;-78
2022/03/20 05:49:08;;;;;;;26.65;18.38;;;3.00;99.90;;;;;;4981954;28;20101;-79
2022/03/20 05:51:34;;;;;;;27.17;18.83;;;3.00;99.90;;;;;;4998557;28;20392;-78
2022/03/20 05:54:01;;;;;;;25.45;18.23;;;3.00;99.90;;;;;;4998199;28;20117;-78
2022/03/20 05:59:11;;;;;;;24.92;17.80;;;3.00;99.90;;;;;;4999953;28;20375;-79
2022/03/20 06:01:36;;;;;;;24.75;18.20;;;3.00;99.90;;;;;;5017017;28;20050;-80
2022/03/20 06:04:03;;;;;;;26.75;18.45;;;3.00;99.90;;;;;;5016832;28;20551;-79
2022/03/20 06:06:32;;;;;;;25.33;18.60;;;3.00;99.90;;;;;;4999111;28;20054;-79
2022/03/20 06:08:58;;;;;;;26.00;17.83;;;3.00;99.90;;;;;;5016650;28;20415;-80
2022/03/20 06:11:23;;;;;;;26.02;18.05;;;3.10;99.90;;;;;;5016299;28;20050;-78
2022/03/20 06:13:49;;;;;;;25.80;18.77;;;3.10;99.90;;;;;;5016585;28;20467;-79
2022/03/20 06:16:16;;;;;;;30.40;19.70;;;3.10;99.90;;;;;;5016305;28;20030;-79
2022/03/20 06:18:42;;;;;;;32.70;20.25;;;3.10;99.90;;;;;;4998990;28;20033;-78
2022/03/20 06:21:11;;;;;;;29.77;19.38;;;3.10;99.90;;;;;;4999103;28;20061;-78
2022/03/20 06:23:40;;;;;;;35.00;20.20;;;3.10;99.90;;;;;;4999874;28;20038;-78
2022/03/20 06:26:07;;;;;;;28.75;18.05;;;3.10;99.90;;;;;;4998937;28;20049;-78
2022/03/20 06:28:33;;;;;;;24.73;19.27;;;3.20;99.90;;;;;;4982863;28;20068;-79
2022/03/20 06:30:59;;;;;;;29.98;19.67;;;3.20;99.90;;;;;;5015988;28;20045;-78
2022/03/20 06:33:25;;;;;;;26.27;19.15;;;3.30;99.90;;;;;;5014765;28;20041;-78
2022/03/20 06:35:52;;;;;;;31.27;19.35;;;3.20;99.90;;;;;;5015971;28;20072;-79
2022/03/20 06:38:18;;;;;;;32.03;20.80;;;3.30;99.90;;;;;;5016007;28;20042;-78
2022/03/20 06:40:44;;;;;;;29.52;20.15;;;3.30;99.90;;;;;;4998628;28;20448;-82
2022/03/20 06:43:10;;;;;;;30.17;19.70;;;3.30;99.90;;;;;;5015785;28;20310;-78
2022/03/20 06:45:36;;;;;;;26.90;19.73;;;3.40;99.90;;;;;;4999120;28;20056;-80
2022/03/20 06:48:03;;;;;;;32.28;19.52;;;3.40;99.90;;;;;;5015775;28;20060;-81
2022/03/20 06:50:29;;;;;;;30.08;20.60;;;3.40;99.90;;;;;;4999018;28;20396;-81
2022/03/20 06:52:54;;;;;;;31.20;21.02;;;3.50;99.90;;;;;;5015786;28;20034;-78
2022/03/20 06:55:20;;;;;;;27.70;19.70;;;3.50;99.90;;;;;;4998956;28;20440;-79
2022/03/20 06:57:46;;;;;;;26.88;18.65;;;3.50;99.90;;;;;;5015660;28;20041;-79
2022/03/20 07:00:16;;;;;;;25.75;20.05;;;3.50;99.90;;;;;;4995029;28;20062;-79
2022/03/20 07:02:41;;;;;;;29.70;20.10;;;3.60;99.90;;;;;;4996081;28;20117;-79
2022/03/20 07:05:07;;;;;;;25.17;19.92;;;3.60;99.90;;;;;;4995981;28;20078;-79
2022/03/20 07:07:34;;;;;;;31.48;20.33;;;3.60;99.90;;;;;;4992233;28;20046;-79
2022/03/20 07:10:00;;;;;;;28.80;20.92;;;3.60;99.90;;;;;;4979527;28;20125;-80
2022/03/20 07:12:26;;;;;;;29.52;19.73;;;3.60;99.90;;;;;;4995152;28;20061;-78
2022/03/20 07:14:53;;;;;;;28.65;20.83;;;3.70;99.90;;;;;;4995304;28;20042;-80
2022/03/20 07:17:19;;;;;;;29.40;21.55;;;3.80;99.90;;;;;;4994712;28;20113;-82
2022/03/20 07:19:45;;;;;;;30.65;20.75;;;3.70;99.90;;;;;;4978303;28;20146;-80
2022/03/20 07:22:13;;;;;;;28.85;19.45;;;3.80;99.90;;;;;;4995159;28;20113;-79
2022/03/20 07:24:41;;;;;;;27.98;20.10;;;3.80;99.90;;;;;;4995407;28;20050;-79
2022/03/20 07:29:56;;;;;;;29.25;19.58;;;3.90;99.90;;;;;;4995328;28;20050;-81
2022/03/20 07:32:21;;;;;;;27.60;19.92;;;4.00;99.90;;;;;;4995249;28;20337;-77
2022/03/20 07:34:47;;;;;;;26.30;20.10;;;4.00;99.90;;;;;;4996000;28;20038;-79
2022/03/20 07:37:16;;;;;;;36.67;20.95;;;4.10;99.90;;;;;;4995005;28;20155;-79
2022/03/20 07:39:51;;;;;;;31.67;19.85;;;4.10;99.90;;;;;;4994595;28;20042;-78
2022/03/20 07:42:18;;;;;;;29.35;20.52;;;4.10;99.90;;;;;;4995588;28;20042;-76
2022/03/20 07:44:45;;;;;;;27.77;20.08;;;4.20;99.90;;;;;;4994272;28;20061;-75
2022/03/20 07:47:22;;;;;;;28.13;20.02;;;4.20;99.90;;;;;;4995051;28;20042;-77
2022/03/20 07:49:50;;;;;;;26.00;20.23;;;4.30;99.90;;;;;;4978095;28;20042;-78
2022/03/20 07:52:15;;;;;;;30.73;20.92;;;4.30;99.90;;;;;;4995694;28;20132;-76
2022/03/20 07:54:42;;;;;;;28.73;20.50;;;4.40;99.90;;;;;;4995455;28;20046;-74
2022/03/20 07:57:08;;;;;;;33.45;21.10;;;4.40;99.90;;;;;;4994655;28;20433;-73
2022/03/20 07:59:34;;;;;;;30.23;20.52;;;4.40;99.90;;;;;;4994464;28;20073;-77
2022/03/20 08:02:00;;;;;;;29.35;20.38;;;4.50;99.90;;;;;;4995976;28;20104;-73
2022/03/20 08:04:25;;;;;;;28.33;20.77;;;4.50;99.90;;;;;;4995431;28;20035;-76
2022/03/20 08:06:51;;;;;;;30.75;21.30;;;4.60;99.90;;;;;;4994256;28;20457;-76
2022/03/20 08:09:17;;;;;;;28.85;20.10;;;4.60;99.90;;;;;;4994880;28;20338;-77
2022/03/20 08:11:43;;;;;;;32.15;21.60;;;4.60;99.90;;;;;;4994692;28;20042;-77
2022/03/20 08:14:09;;;;;;;30.23;20.77;;;4.70;99.90;;;;;;4993706;28;20068;-75
2022/03/20 08:16:38;;;;;;;31.70;20.95;;;4.80;99.90;;;;;;4995266;28;20038;-76
2022/03/20 08:19:05;;;;;;;30.00;21.23;;;4.80;99.90;;;;;;4972721;28;20055;-76
2022/03/20 08:21:33;;;;;;;28.83;20.15;;;4.80;99.90;;;;;;4975238;28;20042;-77
2022/03/20 08:24:01;;;;;;;27.17;19.83;;;4.90;99.90;;;;;;4979666;28;20046;-76
2022/03/20 08:26:26;;;;;;;25.73;18.25;;;4.90;99.90;;;;;;4992308;28;20370;-75
2022/03/20 08:28:52;;;;;;;28.63;20.98;;;5.00;99.90;;;;;;4991244;28;20125;-76
2022/03/20 08:31:17;;;;;;;25.77;19.65;;;5.00;99.90;;;;;;4994485;28;20054;-75
2022/03/20 08:33:43;;;;;;;33.15;20.92;;;5.00;99.90;;;;;;4993278;28;20050;-78
2022/03/20 08:36:09;;;;;;;32.58;20.38;;;5.10;99.90;;;;;;4991251;28;20057;-78
2022/03/20 08:38:37;;;;;;;25.67;19.50;;;5.10;99.90;;;;;;4994538;28;20105;-76
2022/03/20 08:41:03;;;;;;;29.85;21.05;;;5.20;99.90;;;;;;4994889;28;20078;-74
2022/03/20 08:43:29;;;;;;;32.97;21.17;;;5.20;99.90;;;;;;4994841;28;20128;-73
2022/03/20 08:45:54;;;;;;;28.90;21.05;;;5.30;99.90;;;;;;4994142;28;20046;-74
2022/03/20 08:48:20;;;;;;;31.00;21.23;;;5.30;99.90;;;;;;4994783;28;20038;-76
2022/03/20 08:50:49;;;;;;;31.85;22.20;;;5.30;99.90;;;;;;4994883;28;20126;-74
2022/03/20 08:53:19;;;;;;;30.85;21.73;;;5.40;99.90;;;;;;4993249;28;20042;-75
2022/03/20 08:55:48;;;;;;;29.25;21.83;;;5.50;99.90;;;;;;4996930;28;20038;-73
2022/03/20 08:58:14;;;;;;;33.92;22.00;;;5.50;99.90;;;;;;4999620;28;20045;-77
2022/03/20 09:00:41;;;;;;;32.95;21.15;;;5.60;99.90;;;;;;5017567;28;20041;-73
2022/03/20 09:03:07;;;;;;;31.38;22.30;;;5.70;99.90;;;;;;5017993;28;20187;-75
2022/03/20 09:05:33;;;;;;;30.92;22.70;;;5.70;99.90;;;;;;5018154;28;20480;-76
2022/03/20 09:07:59;;;;;;;35.95;23.27;;;5.80;99.90;;;;;;5017457;28;20385;-71
2022/03/20 09:10:25;;;;;;;30.35;22.27;;;5.80;99.90;;;;;;5017655;28;20092;-72
2022/03/20 09:12:55;;;;;;;32.92;22.80;;;5.90;99.90;;;;;;5014723;28;20034;-80
2022/03/20 09:15:22;;;;;;;31.33;22.13;;;5.90;99.90;;;;;;4981481;28;20038;-78
2022/03/20 09:20:34;;;;;;;33.70;23.35;;;6.00;99.90;;;;;;4996725;28;20053;-77
2022/03/20 09:23:00;;;;;;;33.13;21.75;;;6.10;99.90;;;;;;5017324;28;20034;-77
2022/03/20 09:25:27;;;;;;;33.83;22.95;;;6.10;99.90;;;;;;5017944;28;20476;-81
2022/03/20 09:27:52;;;;;;;35.75;23.40;;;6.10;99.90;;;;;;5016703;28;20506;-77
2022/03/20 09:30:21;;;;;;;31.15;22.73;;;6.20;99.90;;;;;;5017513;28;20041;-80
2022/03/20 09:32:48;;;;;;;36.90;23.45;;;6.20;99.90;;;;;;5017241;28;20052;-80
2022/03/20 09:35:14;;;;;;;33.20;23.02;;;6.20;99.90;;;;;;5016910;28;20128;-79
2022/03/20 09:37:40;;;;;;;34.17;24.52;;;6.40;99.90;;;;;;5000502;28;20111;-77
2022/03/20 09:40:06;;;;;;;34.55;23.83;;;6.40;99.90;;;;;;5017234;28;20391;-77
2022/03/20 09:42:35;;;;;;;35.67;24.02;;;6.40;99.90;;;;;;5012154;28;20030;-79
2022/03/20 09:45:01;;;;;;;35.10;23.58;;;6.50;99.90;;;;;;5000031;28;20042;-79
2022/03/20 09:47:28;;;;;;;32.80;22.77;;;6.50;99.90;;;;;;4990281;28;20073;-74
2022/03/20 09:49:56;;;;;;;31.30;23.48;;;6.60;99.90;;;;;;4997280;28;20050;-74
2022/03/20 09:52:23;;;;;;;32.80;23.48;;;6.60;99.90;;;;;;4980688;28;20054;-78
2022/03/20 09:54:49;;;;;;;31.92;23.23;;;6.60;99.90;;;;;;4964321;28;20519;-79
2022/03/20 09:57:15;;;;;;;30.27;22.90;;;6.70;99.90;;;;;;4998242;28;20065;-80
2022/03/20 09:59:41;;;;;;;32.67;22.23;;;6.80;99.90;;;;;;4989904;28;20050;-78
2022/03/20 10:02:11;;;;;;;33.83;22.52;;;6.90;99.90;;;;;;4996843;28;20041;-76
2022/03/20 10:04:56;;;;;;;36.58;23.63;;;6.90;99.90;;;;;;4997182;28;20038;-79
2022/03/20 10:07:30;;;;;;;30.30;23.20;;;7.00;99.90;;;;;;4995380;28;20055;-77
2022/03/20 10:10:26;;;;;;;36.55;23.00;;;7.00;99.90;;;;;;4996742;28;20046;-77
2022/03/20 10:12:57;;;;;;;33.17;23.83;;;7.10;99.90;;;;;;4984432;28;20066;-75
2022/03/20 10:15:28;;;;;;;31.67;23.65;;;7.10;99.90;;;;;;4997264;28;20361;-76
2022/03/20 10:18:10;;;;;;;34.78;23.75;;;7.20;99.90;;;;;;4996479;28;20038;-76
2022/03/20 10:20:41;;;;;;;30.45;23.27;;;7.20;99.90;;;;;;5013698;28;20045;-76
2022/03/20 10:23:29;;;;;;;37.80;23.10;;;7.20;99.90;;;;;;5016188;28;20120;-77
2022/03/20 10:25:55;;;;;;;31.45;22.95;;;7.30;99.90;;;;;;5016361;28;20045;-77
2022/03/20 10:28:21;;;;;;;33.00;23.38;;;7.40;99.90;;;;;;4999643;28;20038;-76
2022/03/20 10:31:00;;;;;;;34.17;24.25;;;7.40;99.90;;;;;;4999174;28;20037;-78
2022/03/20 10:33:26;;;;;;;37.08;25.25;;;7.50;99.90;;;;;;4976697;28;20178;-79
2022/03/20 10:36:15;;;;;;;34.10;23.70;;;7.50;99.90;;;;;;4991813;28;20137;-78
2022/03/20 10:38:43;;;;;;;32.38;23.92;;;7.60;99.90;;;;;;4996023;28;20112;-78
2022/03/20 10:41:34;;;;;;;32.80;23.05;;;7.70;99.90;;;;;;4996476;28;20042;-78
2022/03/20 10:44:01;;;;;;;31.65;23.00;;;7.80;99.90;;;;;;4995194;28;20440;-76
2022/03/20 10:46:32;;;;;;;33.92;24.15;;;7.80;99.90;;;;;;4995954;28;20115;-80
2022/03/20 10:49:00;;;;;;;36.75;25.15;;;7.90;99.90;;;;;;4978867;28;20109;-77
2022/03/20 10:51:41;;;;;;;38.55;24.55;;;7.90;99.90;;;;;;4996367;28;20038;-78
2022/03/20 10:54:15;;;;;;;38.28;24.40;;;8.00;99.90;;;;;;4996199;28;20053;-79
2022/03/20 10:56:56;;;;;;;34.63;23.65;;;8.10;99.90;;;;;;4995276;28;20038;-77
2022/03/20 10:59:23;;;;;;;34.47;25.42;;;8.10;99.90;;;;;;5006742;28;20312;-81
2022/03/20 11:01:49;;;;;;;36.75;25.77;;;8.10;99.90;;;;;;4997825;28;20479;-77
2022/03/20 11:04:15;;;;;;;31.13;24.15;;;8.20;99.90;;;;;;4997578;28;20037;-76
2022/03/20 11:06:46;;;;;;;38.00;25.77;;;8.30;99.90;;;;;;5014659;28;20038;-78
2022/03/20 11:09:12;;;;;;;33.92;24.65;;;8.40;99.90;;;;;;4998004;28;20121;-76
2022/03/20 11:11:44;;;;;;;32.72;25.25;;;8.40;99.90;;;;;;5015632;28;20054;-79
2022/03/20 11:14:15;;;;;;;35.17;25.45;;;8.50;99.90;;;;;;5015487;28;20038;-77
2022/03/20 11:16:42;;;;;;;38.08;26.48;;;8.50;99.90;;;;;;4998323;28;20053;-77
2022/03/20 11:19:12;;;;;;;33.80;24.95;;;8.60;99.90;;;;;;5006193;28;20049;-76
2022/03/20 11:21:40;;;;;;;33.95;25.73;;;8.60;99.90;;;;;;4998487;28;20056;-79
2022/03/20 11:24:07;;;;;;;31.67;23.75;;;8.60;99.90;;;;;;5015274;28;20069;-78
2022/03/20 11:26:38;;;;;;;38.20;25.65;;;8.70;99.90;;;;;;4998172;28;20444;-78
2022/03/20 11:29:07;;;;;;;34.47;25.60;;;8.70;99.90;;;;;;4998243;28;20479;-77
2022/03/20 11:31:35;;;;;;;32.38;25.10;;;8.90;99.90;;;;;;4998304;28;20100;-80
2022/03/20 11:34:08;;;;;;;40.00;26.02;;;9.00;99.90;;;;;;4996771;28;20037;-75
2022/03/20 11:36:59;;;;;;;33.75;24.80;;;9.10;99.90;;;;;;5014756;28;20045;-78
2022/03/20 11:39:25;;;;;;;32.47;23.30;;;9.10;99.90;;;;;;4997438;28;20042;-76
2022/03/20 11:42:19;;;;;;;35.88;24.85;;;9.30;99.90;;;;;;5015060;28;20045;-75
2022/03/20 11:45:13;;;;;;;37.00;26.23;;;9.30;99.90;;;;;;5015035;28;20042;-77
2022/03/20 11:47:40;;;;;;;33.85;24.15;;;9.50;99.90;;;;;;4980553;28;20061;-76
2022/03/20 11:50:13;;;;;;;36.20;26.20;;;9.60;99.90;;;;;;4978336;28;20122;-76
2022/03/20 11:53:00;;;;;;;36.75;25.40;;;9.70;99.90;;;;;;4995202;28;20057;-76
2022/03/20 11:55:40;;;;;;;35.42;26.40;;;9.80;99.90;;;;;;4995054;28;20038;-75
2022/03/20 11:58:31;;;;;;;32.92;25.13;;;10.00;99.90;;;;;;5010983;28;20117;-76
2022/03/20 12:01:04;;;;;;;31.60;24.48;;;10.00;99.90;;;;;;4996935;28;20595;-76
2022/03/20 12:03:51;;;;;;;36.47;25.40;;;10.10;99.90;;;;;;4997480;28;20073;-76
2022/03/20 12:06:41;;;;;;;32.67;24.48;;;10.10;99.90;;;;;;5014536;28;20046;-74
2022/03/20 12:09:26;;;;;;;34.47;25.73;;;10.20;99.90;;;;;;5014892;28;20050;-75
2022/03/20 12:12:11;;;;;;;;;;;10.20;99.90;;;;;;5006109;28;20313;-77
2022/03/20 12:14:38;;;;;;;32.55;25.67;;;10.30;99.90;;;;;;4994950;28;20336;-76
2022/03/20 12:17:04;;;;;;;36.03;24.80;;;10.40;99.90;;;;;;4994990;28;20054;-74
2022/03/20 12:19:44;;;;;;;33.33;26.33;;;10.50;99.90;;;;;;5002893;28;20049;-76
2022/03/20 12:22:28;;;;;;;31.38;25.75;;;10.60;99.90;;;;;;5014585;28;20052;-74
2022/03/20 12:24:55;;;;;;;38.72;26.90;;;10.50;99.90;;;;;;4997688;28;20132;-75
2022/03/20 12:27:24;;;;;;;36.00;26.45;;;10.50;99.90;;;;;;4999874;28;20035;-76
2022/03/20 12:30:02;;;;;;;32.92;26.30;;;10.60;99.90;;;;;;4978425;28;20540;-76
2022/03/20 12:32:50;;;;;;;35.97;25.65;;;10.60;99.90;;;;;;4981892;28;20042;-75
2022/03/20 12:35:26;;;;;;;32.95;26.20;;;10.80;99.90;;;;;;4998619;28;20038;-76
2022/03/20 12:37:55;;;;;;;34.30;26.27;;;10.90;99.90;;;;;;4998743;28;20062;-77
2022/03/20 12:40:30;;;;;;;38.45;27.23;;;11.00;99.90;;;;;;5004633;28;20060;-75
2022/03/20 12:43:09;;;;;;;37.13;27.27;;;10.90;99.90;;;;;;5018138;28;20046;-75
2022/03/20 12:45:38;;;;;;;34.08;26.30;;;11.00;99.90;;;;;;5000933;28;20089;-76
2022/03/20 12:48:07;;;;;;;35.10;26.27;;;11.10;99.90;;;;;;5018042;28;20092;-77
2022/03/20 12:50:37;;;;;;;34.72;26.02;;;11.20;99.90;;;;;;4982064;28;20056;-75
2022/03/20 12:53:18;;;;;;;36.80;27.13;;;11.20;99.50;;;;;;5017677;28;20120;-76
2022/03/20 12:55:56;;;;;;;36.70;26.58;;;11.00;99.70;;;;;;5006480;28;20411;-74
2022/03/20 12:58:22;;;;;;;35.72;26.90;;;11.10;98.50;;;;;;4998072;28;20058;-74
2022/03/20 13:00:48;;;;;;;33.47;25.58;;;11.00;99.00;;;;;;4998333;28;20054;-74
2022/03/20 13:03:16;;;;;;;34.45;25.98;;;11.10;99.90;;;;;;4998435;28;20050;-75
2022/03/20 13:05:57;;;;;;;35.92;27.80;;;11.20;98.50;;;;;;4997991;28;20138;-75
2022/03/20 13:08:28;;;;;;;34.25;26.65;;;11.60;98.90;;;;;;4998292;28;20130;-77
2022/03/20 13:10:59;;;;;;;34.85;26.20;;;11.90;99.90;;;;;;4997796;28;20088;-76
2022/03/20 13:13:30;;;;;;;32.40;26.17;;;12.10;97.40;;;;;;4998344;28;20042;-77
2022/03/20 13:15:56;;;;;;;36.63;27.40;;;12.30;97.30;;;;;;4997117;28;20085;-77
2022/03/20 13:18:27;;;;;;;33.97;26.40;;;12.30;97.60;;;;;;4997579;28;20500;-75